sensor_id;sensor_type;location;lat;lon;timestamp;P1;durP1;ratioP1;P2;durP2;ratioP2
51179;SDS011;37243;49.814;8.652;2022-08-21T00:00:39;4.28;;;3.90;;
51179;SDS011;37243;49.814;8.652;2022-08-21T00:03:09;4.45;;;4.05;;
51179;SDS011;37243;49.814;8.652;2022-08-21T00:05:39;3.85;;;3.55;;
51179;SDS011;37243;49.814;8.652;2022-08-21T00:08:09;4.72;;;4.35;;
51179;SDS011;37243;49.814;8.652;2022-08-21T00:10:38;4.55;;;4.15;;
51179;SDS011;37243;49.814;8.652;2022-08-21T00:13:07;4.57;;;4.18;;
51179;SDS011;37243;49.814;8.652;2022-08-21T00:15:40;4.22;;;3.95;;
51179;SDS011;37243;49.814;8.652;2022-08-21T00:18:09;4.53;;;4.20;;
51179;SDS011;37243;49.814;8.652;2022-08-21T00:20:39;4.80;;;4.30;;
51179;SDS011;37243;49.814;8.652;2022-08-21T00:23:08;4.72;;;4.20;;
51179;SDS011;37243;49.814;8.652;2022-08-21T00:25:38;4.45;;;4.05;;
51179;SDS011;37243;49.814;8.652;2022-08-21T00:28:07;4.10;;;3.80;;
51179;SDS011;37243;49.814;8.652;2022-08-21T00:30:35;4.75;;;4.20;;
51179;SDS011;37243;49.814;8.652;2022-08-21T00:33:08;4.85;;;4.10;;
51179;SDS011;37243;49.814;8.652;2022-08-21T00:35:39;4.05;;;3.65;;
51179;SDS011;37243;49.814;8.652;2022-08-21T00:38:09;3.88;;;3.67;;
51179;SDS011;37243;49.814;8.652;2022-08-21T00:40:39;4.20;;;3.90;;
51179;SDS011;37243;49.814;8.652;2022-08-21T00:43:10;4.22;;;3.90;;
51179;SDS011;37243;49.814;8.652;2022-08-21T00:45:43;4.93;;;4.00;;
51179;SDS011;37243;49.814;8.652;2022-08-21T00:48:12;4.82;;;4.07;;
51179;SDS011;37243;49.814;8.652;2022-08-21T00:50:42;5.13;;;4.22;;
51179;SDS011;37243;49.814;8.652;2022-08-21T00:53:13;4.25;;;3.92;;
51179;SDS011;37243;49.814;8.652;2022-08-21T00:55:42;4.43;;;4.10;;
51179;SDS011;37243;49.814;8.652;2022-08-21T00:58:12;4.28;;;3.97;;
51179;SDS011;37243;49.814;8.652;2022-08-21T01:00:49;4.20;;;3.90;;
51179;SDS011;37243;49.814;8.652;2022-08-21T01:03:20;4.43;;;3.90;;
51179;SDS011;37243;49.814;8.652;2022-08-21T01:05:50;4.75;;;4.35;;
51179;SDS011;37243;49.814;8.652;2022-08-21T01:08:20;4.40;;;4.10;;
51179;SDS011;37243;49.814;8.652;2022-08-21T01:10:49;5.10;;;4.05;;
51179;SDS011;37243;49.814;8.652;2022-08-21T01:13:20;4.85;;;4.22;;
51179;SDS011;37243;49.814;8.652;2022-08-21T01:15:53;5.82;;;4.40;;
51179;SDS011;37243;49.814;8.652;2022-08-21T01:18:24;5.05;;;3.80;;
51179;SDS011;37243;49.814;8.652;2022-08-21T01:21:09;6.60;;;4.35;;
51179;SDS011;37243;49.814;8.652;2022-08-21T01:23:41;4.55;;;4.15;;
51179;SDS011;37243;49.814;8.652;2022-08-21T01:26:13;4.50;;;4.18;;
51179;SDS011;37243;49.814;8.652;2022-08-21T01:28:44;4.47;;;4.07;;
51179;SDS011;37243;49.814;8.652;2022-08-21T01:31:17;4.65;;;4.25;;
51179;SDS011;37243;49.814;8.652;2022-08-21T01:33:50;4.47;;;4.07;;
51179;SDS011;37243;49.814;8.652;2022-08-21T01:36:21;4.18;;;3.78;;
51179;SDS011;37243;49.814;8.652;2022-08-21T01:38:53;4.70;;;4.30;;
51179;SDS011;37243;49.814;8.652;2022-08-21T01:41:21;4.35;;;4.03;;
51179;SDS011;37243;49.814;8.652;2022-08-21T01:43:50;4.57;;;4.18;;
51179;SDS011;37243;49.814;8.652;2022-08-21T01:46:18;5.75;;;3.95;;
51179;SDS011;37243;49.814;8.652;2022-08-21T01:48:47;4.18;;;3.88;;
51179;SDS011;37243;49.814;8.652;2022-08-21T01:51:15;4.18;;;3.97;;
51179;SDS011;37243;49.814;8.652;2022-08-21T01:53:47;4.50;;;4.10;;
51179;SDS011;37243;49.814;8.652;2022-08-21T01:56:15;4.07;;;3.70;;
51179;SDS011;37243;49.814;8.652;2022-08-21T01:58:45;4.82;;;3.90;;
51179;SDS011;37243;49.814;8.652;2022-08-21T02:01:15;3.63;;;3.38;;
51179;SDS011;37243;49.814;8.652;2022-08-21T02:03:43;4.43;;;4.03;;
51179;SDS011;37243;49.814;8.652;2022-08-21T02:06:12;4.90;;;3.95;;
51179;SDS011;37243;49.814;8.652;2022-08-21T02:08:43;4.35;;;3.97;;
51179;SDS011;37243;49.814;8.652;2022-08-21T02:11:14;4.50;;;3.83;;
51179;SDS011;37243;49.814;8.652;2022-08-21T02:13:42;5.15;;;3.80;;
51179;SDS011;37243;49.814;8.652;2022-08-21T02:16:11;4.03;;;3.72;;
51179;SDS011;37243;49.814;8.652;2022-08-21T02:18:42;4.60;;;4.18;;
51179;SDS011;37243;49.814;8.652;2022-08-21T02:21:10;4.68;;;4.32;;
51179;SDS011;37243;49.814;8.652;2022-08-21T02:23:38;4.40;;;4.10;;
51179;SDS011;37243;49.814;8.652;2022-08-21T02:26:07;4.43;;;4.10;;
51179;SDS011;37243;49.814;8.652;2022-08-21T02:28:39;5.32;;;4.22;;
51179;SDS011;37243;49.814;8.652;2022-08-21T02:31:07;5.07;;;4.68;;
51179;SDS011;37243;49.814;8.652;2022-08-21T02:33:36;4.72;;;4.28;;
51179;SDS011;37243;49.814;8.652;2022-08-21T02:36:04;4.57;;;4.18;;
51179;SDS011;37243;49.814;8.652;2022-08-21T02:38:33;4.65;;;4.22;;
51179;SDS011;37243;49.814;8.652;2022-08-21T02:41:03;4.40;;;4.10;;
51179;SDS011;37243;49.814;8.652;2022-08-21T02:43:32;5.28;;;4.35;;
51179;SDS011;37243;49.814;8.652;2022-08-21T02:46:05;4.43;;;4.13;;
51179;SDS011;37243;49.814;8.652;2022-08-21T02:48:35;3.97;;;3.58;;
51179;SDS011;37243;49.814;8.652;2022-08-21T02:51:04;4.68;;;3.95;;
51179;SDS011;37243;49.814;8.652;2022-08-21T02:53:39;5.25;;;4.10;;
51179;SDS011;37243;49.814;8.652;2022-08-21T02:56:09;4.60;;;4.13;;
51179;SDS011;37243;49.814;8.652;2022-08-21T02:58:39;4.40;;;4.00;;
51179;SDS011;37243;49.814;8.652;2022-08-21T03:01:12;4.97;;;4.20;;
51179;SDS011;37243;49.814;8.652;2022-08-21T03:03:41;4.70;;;4.30;;
51179;SDS011;37243;49.814;8.652;2022-08-21T03:06:12;4.28;;;3.90;;
51179;SDS011;37243;49.814;8.652;2022-08-21T03:08:42;4.88;;;4.40;;
51179;SDS011;37243;49.814;8.652;2022-08-21T03:11:12;4.10;;;3.70;;
51179;SDS011;37243;49.814;8.652;2022-08-21T03:13:42;5.75;;;4.28;;
51179;SDS011;37243;49.814;8.652;2022-08-21T03:16:13;4.18;;;3.80;;
51179;SDS011;37243;49.814;8.652;2022-08-21T03:18:41;4.57;;;4.20;;
51179;SDS011;37243;49.814;8.652;2022-08-21T03:21:10;4.72;;;4.25;;
51179;SDS011;37243;49.814;8.652;2022-08-21T03:23:38;5.43;;;4.15;;
51179;SDS011;37243;49.814;8.652;2022-08-21T03:26:07;4.78;;;4.38;;
51179;SDS011;37243;49.814;8.652;2022-08-21T03:28:36;4.10;;;3.80;;
51179;SDS011;37243;49.814;8.652;2022-08-21T03:31:04;4.78;;;4.38;;
51179;SDS011;37243;49.814;8.652;2022-08-21T03:33:36;4.47;;;4.18;;
51179;SDS011;37243;49.814;8.652;2022-08-21T03:36:05;4.30;;;3.90;;
51179;SDS011;37243;49.814;8.652;2022-08-21T03:38:36;4.50;;;3.97;;
51179;SDS011;37243;49.814;8.652;2022-08-21T03:41:05;3.97;;;3.67;;
51179;SDS011;37243;49.814;8.652;2022-08-21T03:43:35;4.60;;;4.30;;
51179;SDS011;37243;49.814;8.652;2022-08-21T03:46:04;4.55;;;4.05;;
51179;SDS011;37243;49.814;8.652;2022-08-21T03:48:38;4.38;;;3.97;;
51179;SDS011;37243;49.814;8.652;2022-08-21T03:51:06;4.22;;;3.90;;
51179;SDS011;37243;49.814;8.652;2022-08-21T03:53:35;6.38;;;3.95;;
51179;SDS011;37243;49.814;8.652;2022-08-21T03:56:04;4.55;;;4.15;;
51179;SDS011;37243;49.814;8.652;2022-08-21T03:58:33;4.43;;;4.05;;
51179;SDS011;37243;49.814;8.652;2022-08-21T04:01:04;4.05;;;3.67;;
51179;SDS011;37243;49.814;8.652;2022-08-21T04:03:36;4.50;;;4.10;;
51179;SDS011;37243;49.814;8.652;2022-08-21T04:06:05;5.10;;;3.90;;
51179;SDS011;37243;49.814;8.652;2022-08-21T04:08:34;5.32;;;4.18;;
51179;SDS011;37243;49.814;8.652;2022-08-21T04:11:03;5.18;;;3.72;;
51179;SDS011;37243;49.814;8.652;2022-08-21T04:13:35;4.15;;;3.75;;
51179;SDS011;37243;49.814;8.652;2022-08-21T04:16:03;4.25;;;3.85;;
51179;SDS011;37243;49.814;8.652;2022-08-21T04:18:32;4.47;;;4.07;;
51179;SDS011;37243;49.814;8.652;2022-08-21T04:21:03;4.20;;;3.90;;
51179;SDS011;37243;49.814;8.652;2022-08-21T04:23:35;4.63;;;3.83;;
51179;SDS011;37243;49.814;8.652;2022-08-21T04:26:03;4.15;;;3.80;;
51179;SDS011;37243;49.814;8.652;2022-08-21T04:28:31;4.80;;;4.40;;
51179;SDS011;37243;49.814;8.652;2022-08-21T04:31:00;5.07;;;4.18;;
51179;SDS011;37243;49.814;8.652;2022-08-21T04:33:28;4.43;;;4.03;;
51179;SDS011;37243;49.814;8.652;2022-08-21T04:35:56;3.92;;;3.63;;
51179;SDS011;37243;49.814;8.652;2022-08-21T04:38:27;3.80;;;3.47;;
51179;SDS011;37243;49.814;8.652;2022-08-21T04:40:56;4.82;;;4.43;;
51179;SDS011;37243;49.814;8.652;2022-08-21T04:43:24;4.13;;;3.67;;
51179;SDS011;37243;49.814;8.652;2022-08-21T04:45:53;4.03;;;3.72;;
51179;SDS011;37243;49.814;8.652;2022-08-21T04:48:22;4.22;;;3.85;;
51179;SDS011;37243;49.814;8.652;2022-08-21T04:50:53;5.10;;;4.15;;
51179;SDS011;37243;49.814;8.652;2022-08-21T04:53:28;4.65;;;4.25;;
51179;SDS011;37243;49.814;8.652;2022-08-21T04:56:03;4.15;;;3.70;;
51179;SDS011;37243;49.814;8.652;2022-08-21T04:58:35;4.72;;;4.30;;
51179;SDS011;37243;49.814;8.652;2022-08-21T05:01:06;4.28;;;3.80;;
51179;SDS011;37243;49.814;8.652;2022-08-21T05:03:38;5.40;;;3.80;;
51179;SDS011;37243;49.814;8.652;2022-08-21T05:06:09;4.50;;;4.20;;
51179;SDS011;37243;49.814;8.652;2022-08-21T05:08:42;4.57;;;3.88;;
51179;SDS011;37243;49.814;8.652;2022-08-21T05:11:13;5.45;;;3.92;;
51179;SDS011;37243;49.814;8.652;2022-08-21T05:13:42;5.78;;;4.68;;
51179;SDS011;37243;49.814;8.652;2022-08-21T05:16:10;4.03;;;3.63;;
51179;SDS011;37243;49.814;8.652;2022-08-21T05:18:39;5.28;;;3.80;;
51179;SDS011;37243;49.814;8.652;2022-08-21T05:21:07;4.40;;;3.95;;
51179;SDS011;37243;49.814;8.652;2022-08-21T05:23:36;5.13;;;3.90;;
51179;SDS011;37243;49.814;8.652;2022-08-21T05:26:07;4.60;;;4.15;;
51179;SDS011;37243;49.814;8.652;2022-08-21T05:28:35;4.38;;;3.80;;
51179;SDS011;37243;49.814;8.652;2022-08-21T05:31:04;5.00;;;3.63;;
51179;SDS011;37243;49.814;8.652;2022-08-21T05:33:33;4.50;;;4.10;;
51179;SDS011;37243;49.814;8.652;2022-08-21T05:36:01;5.90;;;3.90;;
51179;SDS011;37243;49.814;8.652;2022-08-21T05:38:30;4.30;;;3.90;;
51179;SDS011;37243;49.814;8.652;2022-08-21T05:40:58;4.60;;;3.67;;
51179;SDS011;37243;49.814;8.652;2022-08-21T05:43:29;4.05;;;3.65;;
51179;SDS011;37243;49.814;8.652;2022-08-21T05:46:01;4.22;;;3.83;;
51179;SDS011;37243;49.814;8.652;2022-08-21T05:48:29;4.30;;;3.75;;
51179;SDS011;37243;49.814;8.652;2022-08-21T05:50:58;3.75;;;3.38;;
51179;SDS011;37243;49.814;8.652;2022-08-21T05:53:33;3.95;;;3.58;;
51179;SDS011;37243;49.814;8.652;2022-08-21T05:56:02;6.47;;;4.20;;
51179;SDS011;37243;49.814;8.652;2022-08-21T05:58:34;5.90;;;4.10;;
51179;SDS011;37243;49.814;8.652;2022-08-21T06:01:03;4.35;;;3.95;;
51179;SDS011;37243;49.814;8.652;2022-08-21T06:03:34;4.57;;;3.70;;
51179;SDS011;37243;49.814;8.652;2022-08-21T06:06:04;4.63;;;3.75;;
51179;SDS011;37243;49.814;8.652;2022-08-21T06:08:34;4.20;;;3.80;;
51179;SDS011;37243;49.814;8.652;2022-08-21T06:11:03;4.50;;;3.67;;
51179;SDS011;37243;49.814;8.652;2022-08-21T06:13:35;4.20;;;3.67;;
51179;SDS011;37243;49.814;8.652;2022-08-21T06:16:06;6.22;;;4.00;;
51179;SDS011;37243;49.814;8.652;2022-08-21T06:18:36;4.43;;;3.65;;
51179;SDS011;37243;49.814;8.652;2022-08-21T06:21:06;3.63;;;3.33;;
51179;SDS011;37243;49.814;8.652;2022-08-21T06:23:36;5.93;;;3.75;;
51179;SDS011;37243;49.814;8.652;2022-08-21T06:26:05;3.97;;;3.40;;
51179;SDS011;37243;49.814;8.652;2022-08-21T06:28:37;3.78;;;3.47;;
51179;SDS011;37243;49.814;8.652;2022-08-21T06:31:10;4.97;;;3.60;;
51179;SDS011;37243;49.814;8.652;2022-08-21T06:33:39;4.85;;;3.75;;
51179;SDS011;37243;49.814;8.652;2022-08-21T06:36:08;4.30;;;3.47;;
51179;SDS011;37243;49.814;8.652;2022-08-21T06:38:36;4.30;;;3.90;;
51179;SDS011;37243;49.814;8.652;2022-08-21T06:41:05;6.18;;;3.92;;
51179;SDS011;37243;49.814;8.652;2022-08-21T06:43:37;4.35;;;3.55;;
51179;SDS011;37243;49.814;8.652;2022-08-21T06:46:06;4.60;;;3.40;;
51179;SDS011;37243;49.814;8.652;2022-08-21T06:48:35;4.40;;;4.00;;
51179;SDS011;37243;49.814;8.652;2022-08-21T06:51:03;4.07;;;3.78;;
51179;SDS011;37243;49.814;8.652;2022-08-21T06:53:32;4.03;;;3.60;;
51179;SDS011;37243;49.814;8.652;2022-08-21T06:56:01;4.43;;;3.30;;
51179;SDS011;37243;49.814;8.652;2022-08-21T06:58:30;4.88;;;3.67;;
51179;SDS011;37243;49.814;8.652;2022-08-21T07:01:01;6.57;;;3.85;;
51179;SDS011;37243;49.814;8.652;2022-08-21T07:03:30;5.07;;;3.80;;
51179;SDS011;37243;49.814;8.652;2022-08-21T07:06:00;6.82;;;3.53;;
51179;SDS011;37243;49.814;8.652;2022-08-21T07:08:29;5.28;;;3.78;;
51179;SDS011;37243;49.814;8.652;2022-08-21T07:10:58;5.78;;;3.78;;
51179;SDS011;37243;49.814;8.652;2022-08-21T07:13:29;8.07;;;3.45;;
51179;SDS011;37243;49.814;8.652;2022-08-21T07:15:57;7.07;;;3.63;;
51179;SDS011;37243;49.814;8.652;2022-08-21T07:18:28;5.82;;;3.20;;
51179;SDS011;37243;49.814;8.652;2022-08-21T07:20:57;4.90;;;3.33;;
51179;SDS011;37243;49.814;8.652;2022-08-21T07:23:26;5.35;;;3.75;;
51179;SDS011;37243;49.814;8.652;2022-08-21T07:25:56;4.47;;;3.20;;
51179;SDS011;37243;49.814;8.652;2022-08-21T07:28:25;6.63;;;3.72;;
51179;SDS011;37243;49.814;8.652;2022-08-21T07:30:55;6.60;;;3.63;;
51179;SDS011;37243;49.814;8.652;2022-08-21T07:33:25;3.40;;;3.10;;
51179;SDS011;37243;49.814;8.652;2022-08-21T07:35:58;5.00;;;3.58;;
51179;SDS011;37243;49.814;8.652;2022-08-21T07:38:26;3.25;;;3.05;;
51179;SDS011;37243;49.814;8.652;2022-08-21T07:40:55;6.75;;;3.40;;
51179;SDS011;37243;49.814;8.652;2022-08-21T07:43:25;4.72;;;3.45;;
51179;SDS011;37243;49.814;8.652;2022-08-21T07:45:54;3.63;;;3.08;;
51179;SDS011;37243;49.814;8.652;2022-08-21T07:48:23;6.05;;;3.33;;
51179;SDS011;37243;49.814;8.652;2022-08-21T07:50:53;5.47;;;3.42;;
51179;SDS011;37243;49.814;8.652;2022-08-21T07:53:22;5.00;;;3.40;;
51179;SDS011;37243;49.814;8.652;2022-08-21T07:55:51;4.13;;;3.13;;
51179;SDS011;37243;49.814;8.652;2022-08-21T07:58:19;6.40;;;2.90;;
51179;SDS011;37243;49.814;8.652;2022-08-21T08:00:47;3.67;;;3.35;;
51179;SDS011;37243;49.814;8.652;2022-08-21T08:03:16;3.30;;;3.00;;
51179;SDS011;37243;49.814;8.652;2022-08-21T08:05:44;3.90;;;3.00;;
51179;SDS011;37243;49.814;8.652;2022-08-21T08:08:15;4.60;;;3.22;;
51179;SDS011;37243;49.814;8.652;2022-08-21T08:10:44;3.58;;;3.22;;
51179;SDS011;37243;49.814;8.652;2022-08-21T08:13:14;3.35;;;3.03;;
51179;SDS011;37243;49.814;8.652;2022-08-21T08:15:42;3.22;;;2.97;;
51179;SDS011;37243;49.814;8.652;2022-08-21T08:18:11;3.10;;;2.88;;
51179;SDS011;37243;49.814;8.652;2022-08-21T08:20:39;4.18;;;3.00;;
51179;SDS011;37243;49.814;8.652;2022-08-21T08:23:09;4.57;;;3.80;;
51179;SDS011;37243;49.814;8.652;2022-08-21T08:25:40;5.38;;;3.45;;
51179;SDS011;37243;49.814;8.652;2022-08-21T08:28:09;7.22;;;4.30;;
51179;SDS011;37243;49.814;8.652;2022-08-21T08:30:37;6.18;;;4.18;;
51179;SDS011;37243;49.814;8.652;2022-08-21T08:33:06;5.90;;;3.90;;
51179;SDS011;37243;49.814;8.652;2022-08-21T08:35:34;9.60;;;4.68;;
51179;SDS011;37243;49.814;8.652;2022-08-21T08:38:05;9.00;;;4.70;;
51179;SDS011;37243;49.814;8.652;2022-08-21T08:40:36;11.32;;;5.20;;
51179;SDS011;37243;49.814;8.652;2022-08-21T08:43:12;12.70;;;5.00;;
51179;SDS011;37243;49.814;8.652;2022-08-21T08:45:42;8.45;;;4.78;;
51179;SDS011;37243;49.814;8.652;2022-08-21T08:48:14;8.70;;;4.75;;
51179;SDS011;37243;49.814;8.652;2022-08-21T08:51:00;8.75;;;5.05;;
51179;SDS011;37243;49.814;8.652;2022-08-21T08:53:32;8.95;;;5.50;;
51179;SDS011;37243;49.814;8.652;2022-08-21T08:56:07;8.98;;;5.40;;
51179;SDS011;37243;49.814;8.652;2022-08-21T08:58:38;9.27;;;5.05;;
51179;SDS011;37243;49.814;8.652;2022-08-21T09:01:11;7.18;;;4.80;;
51179;SDS011;37243;49.814;8.652;2022-08-21T09:03:45;8.85;;;4.90;;
51179;SDS011;37243;49.814;8.652;2022-08-21T09:06:19;8.75;;;5.20;;
51179;SDS011;37243;49.814;8.652;2022-08-21T09:09:08;6.93;;;4.30;;
51179;SDS011;37243;49.814;8.652;2022-08-21T09:11:48;8.80;;;4.50;;
51179;SDS011;37243;49.814;8.652;2022-08-21T09:14:26;7.60;;;4.82;;
51179;SDS011;37243;49.814;8.652;2022-08-21T09:17:09;6.50;;;4.50;;
51179;SDS011;37243;49.814;8.652;2022-08-21T09:19:51;8.30;;;4.78;;
51179;SDS011;37243;49.814;8.652;2022-08-21T09:22:29;6.53;;;4.40;;
51179;SDS011;37243;49.814;8.652;2022-08-21T09:25:17;5.18;;;4.43;;
51179;SDS011;37243;49.814;8.652;2022-08-21T09:27:52;7.40;;;4.38;;
51179;SDS011;37243;49.814;8.652;2022-08-21T09:30:23;6.88;;;4.20;;
51179;SDS011;37243;49.814;8.652;2022-08-21T09:32:55;8.82;;;4.57;;
51179;SDS011;37243;49.814;8.652;2022-08-21T09:35:24;5.72;;;3.65;;
51179;SDS011;37243;49.814;8.652;2022-08-21T09:37:55;7.07;;;4.25;;
51179;SDS011;37243;49.814;8.652;2022-08-21T09:40:31;6.13;;;4.65;;
51179;SDS011;37243;49.814;8.652;2022-08-21T09:43:05;5.47;;;3.95;;
51179;SDS011;37243;49.814;8.652;2022-08-21T09:45:43;4.30;;;3.85;;
51179;SDS011;37243;49.814;8.652;2022-08-21T09:48:14;10.02;;;4.40;;
51179;SDS011;37243;49.814;8.652;2022-08-21T09:50:46;6.28;;;4.03;;
51179;SDS011;37243;49.814;8.652;2022-08-21T09:53:16;4.05;;;3.70;;
51179;SDS011;37243;49.814;8.652;2022-08-21T09:55:47;5.15;;;4.13;;
51179;SDS011;37243;49.814;8.652;2022-08-21T09:58:34;4.47;;;4.03;;
51179;SDS011;37243;49.814;8.652;2022-08-21T10:01:05;4.78;;;3.90;;
51179;SDS011;37243;49.814;8.652;2022-08-21T10:03:40;4.72;;;3.60;;
51179;SDS011;37243;49.814;8.652;2022-08-21T10:06:08;4.60;;;4.05;;
51179;SDS011;37243;49.814;8.652;2022-08-21T10:08:40;5.07;;;3.50;;
51179;SDS011;37243;49.814;8.652;2022-08-21T10:11:10;4.35;;;3.65;;
51179;SDS011;37243;49.814;8.652;2022-08-21T10:13:45;4.03;;;3.10;;
51179;SDS011;37243;49.814;8.652;2022-08-21T10:16:25;4.30;;;3.63;;
51179;SDS011;37243;49.814;8.652;2022-08-21T10:19:02;3.83;;;3.45;;
51179;SDS011;37243;49.814;8.652;2022-08-21T10:21:42;3.80;;;3.35;;
51179;SDS011;37243;49.814;8.652;2022-08-21T10:24:21;4.90;;;4.03;;
51179;SDS011;37243;49.814;8.652;2022-08-21T10:26:57;5.13;;;3.88;;
51179;SDS011;37243;49.814;8.652;2022-08-21T10:29:39;4.10;;;3.67;;
51179;SDS011;37243;49.814;8.652;2022-08-21T10:32:19;4.03;;;3.60;;
51179;SDS011;37243;49.814;8.652;2022-08-21T10:34:57;6.65;;;3.35;;
51179;SDS011;37243;49.814;8.652;2022-08-21T10:37:38;7.40;;;3.53;;
51179;SDS011;37243;49.814;8.652;2022-08-21T10:40:19;3.53;;;3.20;;
51179;SDS011;37243;49.814;8.652;2022-08-21T10:42:56;4.00;;;3.20;;
51179;SDS011;37243;49.814;8.652;2022-08-21T10:45:42;3.97;;;3.20;;
51179;SDS011;37243;49.814;8.652;2022-08-21T10:48:22;5.05;;;3.80;;
51179;SDS011;37243;49.814;8.652;2022-08-21T10:51:10;6.47;;;3.40;;
51179;SDS011;37243;49.814;8.652;2022-08-21T10:53:51;3.20;;;2.90;;
51179;SDS011;37243;49.814;8.652;2022-08-21T10:56:32;6.30;;;3.42;;
51179;SDS011;37243;49.814;8.652;2022-08-21T10:59:07;3.47;;;3.17;;
51179;SDS011;37243;49.814;8.652;2022-08-21T11:01:52;4.85;;;3.17;;
51179;SDS011;37243;49.814;8.652;2022-08-21T11:04:28;3.60;;;3.30;;
51179;SDS011;37243;49.814;8.652;2022-08-21T11:07:03;5.15;;;3.15;;
51179;SDS011;37243;49.814;8.652;2022-08-21T11:09:38;3.90;;;3.22;;
51179;SDS011;37243;49.814;8.652;2022-08-21T11:12:12;5.07;;;3.40;;
51179;SDS011;37243;49.814;8.652;2022-08-21T11:14:52;3.33;;;3.08;;
51179;SDS011;37243;49.814;8.652;2022-08-21T11:17:27;3.45;;;3.13;;
51179;SDS011;37243;49.814;8.652;2022-08-21T11:20:03;3.85;;;2.85;;
51179;SDS011;37243;49.814;8.652;2022-08-21T11:22:37;3.08;;;2.75;;
51179;SDS011;37243;49.814;8.652;2022-08-21T11:25:15;3.50;;;3.15;;
51179;SDS011;37243;49.814;8.652;2022-08-21T11:27:49;3.88;;;3.42;;
51179;SDS011;37243;49.814;8.652;2022-08-21T11:30:22;3.55;;;3.08;;
51179;SDS011;37243;49.814;8.652;2022-08-21T11:33:05;3.65;;;2.85;;
51179;SDS011;37243;49.814;8.652;2022-08-21T11:35:43;4.82;;;3.10;;
51179;SDS011;37243;49.814;8.652;2022-08-21T11:38:19;3.92;;;3.10;;
51179;SDS011;37243;49.814;8.652;2022-08-21T11:41:02;2.65;;;2.45;;
51179;SDS011;37243;49.814;8.652;2022-08-21T11:43:41;3.50;;;3.20;;
51179;SDS011;37243;49.814;8.652;2022-08-21T11:46:13;3.03;;;2.75;;
51179;SDS011;37243;49.814;8.652;2022-08-21T11:48:53;5.15;;;3.00;;
51179;SDS011;37243;49.814;8.652;2022-08-21T11:51:32;3.15;;;2.83;;
51179;SDS011;37243;49.814;8.652;2022-08-21T11:54:06;3.33;;;2.70;;
51179;SDS011;37243;49.814;8.652;2022-08-21T11:56:53;2.65;;;2.45;;
51179;SDS011;37243;49.814;8.652;2022-08-21T11:59:26;2.83;;;2.50;;
51179;SDS011;37243;49.814;8.652;2022-08-21T12:02:05;3.15;;;2.95;;
51179;SDS011;37243;49.814;8.652;2022-08-21T12:04:45;3.00;;;2.80;;
51179;SDS011;37243;49.814;8.652;2022-08-21T12:07:29;3.40;;;3.10;;
51179;SDS011;37243;49.814;8.652;2022-08-21T12:09:59;3.38;;;2.90;;
51179;SDS011;37243;49.814;8.652;2022-08-21T12:12:30;4.38;;;3.08;;
51179;SDS011;37243;49.814;8.652;2022-08-21T12:17:54;3.38;;;3.08;;
51179;SDS011;37243;49.814;8.652;2022-08-21T12:20:36;3.50;;;3.20;;
51179;SDS011;37243;49.814;8.652;2022-08-21T12:23:16;3.88;;;3.50;;
51179;SDS011;37243;49.814;8.652;2022-08-21T12:25:47;4.05;;;3.25;;
51179;SDS011;37243;49.814;8.652;2022-08-21T12:28:29;3.85;;;3.33;;
51179;SDS011;37243;49.814;8.652;2022-08-21T12:30:59;5.13;;;3.85;;
51179;SDS011;37243;49.814;8.652;2022-08-21T12:33:30;4.13;;;3.72;;
51179;SDS011;37243;49.814;8.652;2022-08-21T12:36:04;3.53;;;3.22;;
51179;SDS011;37243;49.814;8.652;2022-08-21T12:38:39;4.05;;;3.65;;
51179;SDS011;37243;49.814;8.652;2022-08-21T12:41:16;7.38;;;3.97;;
51179;SDS011;37243;49.814;8.652;2022-08-21T12:43:48;8.73;;;3.60;;
51179;SDS011;37243;49.814;8.652;2022-08-21T12:46:26;5.90;;;4.15;;
51179;SDS011;37243;49.814;8.652;2022-08-21T12:49:01;3.80;;;3.50;;
51179;SDS011;37243;49.814;8.652;2022-08-21T12:51:46;4.60;;;3.60;;
51179;SDS011;37243;49.814;8.652;2022-08-21T12:54:23;4.40;;;3.97;;
51179;SDS011;37243;49.814;8.652;2022-08-21T12:56:56;3.97;;;3.58;;
51179;SDS011;37243;49.814;8.652;2022-08-21T12:59:26;4.25;;;3.85;;
51179;SDS011;37243;49.814;8.652;2022-08-21T13:01:56;3.90;;;3.60;;
51179;SDS011;37243;49.814;8.652;2022-08-21T13:04:32;5.05;;;3.60;;
51179;SDS011;37243;49.814;8.652;2022-08-21T13:07:08;4.47;;;3.70;;
51179;SDS011;37243;49.814;8.652;2022-08-21T13:09:40;4.05;;;3.65;;
51179;SDS011;37243;49.814;8.652;2022-08-21T13:12:14;4.13;;;3.75;;
51179;SDS011;37243;49.814;8.652;2022-08-21T13:14:46;4.47;;;4.07;;
51179;SDS011;37243;49.814;8.652;2022-08-21T13:17:16;4.13;;;3.72;;
51179;SDS011;37243;49.814;8.652;2022-08-21T13:19:52;4.18;;;3.78;;
51179;SDS011;37243;49.814;8.652;2022-08-21T13:22:25;3.72;;;3.42;;
51179;SDS011;37243;49.814;8.652;2022-08-21T13:24:55;4.38;;;3.97;;
51179;SDS011;37243;49.814;8.652;2022-08-21T13:27:25;4.28;;;3.60;;
51179;SDS011;37243;49.814;8.652;2022-08-21T13:30:02;4.30;;;3.90;;
51179;SDS011;37243;49.814;8.652;2022-08-21T13:32:33;5.63;;;3.63;;
51179;SDS011;37243;49.814;8.652;2022-08-21T13:35:10;3.92;;;3.40;;
51179;SDS011;37243;49.814;8.652;2022-08-21T13:37:43;3.97;;;3.65;;
51179;SDS011;37243;49.814;8.652;2022-08-21T13:40:17;5.57;;;3.78;;
51179;SDS011;37243;49.814;8.652;2022-08-21T13:42:48;3.90;;;3.50;;
51179;SDS011;37243;49.814;8.652;2022-08-21T13:45:18;4.22;;;3.80;;
51179;SDS011;37243;49.814;8.652;2022-08-21T13:47:52;4.88;;;3.63;;
51179;SDS011;37243;49.814;8.652;2022-08-21T13:50:22;7.72;;;3.88;;
51179;SDS011;37243;49.814;8.652;2022-08-21T13:52:59;7.78;;;3.58;;
51179;SDS011;37243;49.814;8.652;2022-08-21T13:55:39;4.07;;;3.60;;
51179;SDS011;37243;49.814;8.652;2022-08-21T13:58:10;4.32;;;3.70;;
51179;SDS011;37243;49.814;8.652;2022-08-21T14:00:44;3.83;;;3.53;;
51179;SDS011;37243;49.814;8.652;2022-08-21T14:03:22;4.70;;;3.65;;
51179;SDS011;37243;49.814;8.652;2022-08-21T14:05:55;3.97;;;3.67;;
51179;SDS011;37243;49.814;8.652;2022-08-21T14:08:27;5.35;;;3.70;;
51179;SDS011;37243;49.814;8.652;2022-08-21T14:11:00;5.88;;;3.42;;
51179;SDS011;37243;49.814;8.652;2022-08-21T14:13:34;4.00;;;3.60;;
51179;SDS011;37243;49.814;8.652;2022-08-21T14:16:11;4.80;;;3.80;;
51179;SDS011;37243;49.814;8.652;2022-08-21T14:18:46;4.22;;;3.30;;
51179;SDS011;37243;49.814;8.652;2022-08-21T14:21:23;3.45;;;3.00;;
51179;SDS011;37243;49.814;8.652;2022-08-21T14:24:02;4.20;;;3.53;;
51179;SDS011;37243;49.814;8.652;2022-08-21T14:26:32;4.50;;;3.90;;
51179;SDS011;37243;49.814;8.652;2022-08-21T14:29:04;4.32;;;3.65;;
51179;SDS011;37243;49.814;8.652;2022-08-21T14:31:35;3.53;;;3.22;;
51179;SDS011;37243;49.814;8.652;2022-08-21T14:34:05;4.28;;;3.40;;
51179;SDS011;37243;49.814;8.652;2022-08-21T14:36:33;3.30;;;3.10;;
51179;SDS011;37243;49.814;8.652;2022-08-21T14:39:04;3.67;;;3.15;;
51179;SDS011;37243;49.814;8.652;2022-08-21T14:41:32;3.65;;;3.35;;
51179;SDS011;37243;49.814;8.652;2022-08-21T14:44:01;3.78;;;3.20;;
51179;SDS011;37243;49.814;8.652;2022-08-21T14:46:30;4.03;;;3.28;;
51179;SDS011;37243;49.814;8.652;2022-08-21T14:49:00;3.80;;;3.50;;
51179;SDS011;37243;49.814;8.652;2022-08-21T14:51:28;3.55;;;3.22;;
51179;SDS011;37243;49.814;8.652;2022-08-21T14:53:57;3.70;;;3.40;;
51179;SDS011;37243;49.814;8.652;2022-08-21T14:56:28;3.00;;;2.70;;
51179;SDS011;37243;49.814;8.652;2022-08-21T14:58:56;3.72;;;3.40;;
51179;SDS011;37243;49.814;8.652;2022-08-21T15:01:29;3.63;;;3.25;;
51179;SDS011;37243;49.814;8.652;2022-08-21T15:03:59;3.45;;;3.15;;
51179;SDS011;37243;49.814;8.652;2022-08-21T15:06:28;2.92;;;2.63;;
51179;SDS011;37243;49.814;8.652;2022-08-21T15:08:56;3.38;;;3.08;;
51179;SDS011;37243;49.814;8.652;2022-08-21T15:11:29;3.40;;;3.10;;
51179;SDS011;37243;49.814;8.652;2022-08-21T15:13:58;2.92;;;2.63;;
51179;SDS011;37243;49.814;8.652;2022-08-21T15:16:29;3.63;;;3.33;;
51179;SDS011;37243;49.814;8.652;2022-08-21T15:18:58;4.18;;;3.38;;